Time,TemperatureF,DewpointF,PressureIn,WindDirection,WindDirectionDegrees,WindSpeedMPH,WindSpeedGustMPH,Humidity,HourlyPrecipIn,Conditions,Clouds,dailyrainin,SoftwareType,DateUTC
2013-01-01 00:02:00,2.0,-2.0,-100.00,ESE,108,2.0,5.0,83,-99.99,,,-99.99,,2013-01-01 07:02:00,
2013-01-01 00:11:00,4.0,1.0,-100.00,SW,218,2.0,5.0,85,-99.99,,,-99.99,,2013-01-01 07:11:00,
2013-01-01 00:22:00,4.0,1.0,-100.00,SW,218,2.0,5.0,85,-99.99,,,-99.99,,2013-01-01 07:22:00,
2013-01-01 00:32:00,4.0,1.0,-100.00,SW,218,2.0,5.0,85,-99.99,,,-99.99,,2013-01-01 07:32:00,
2013-01-01 00:42:00,2.0,-2.0,-100.00,ENE,73,2.0,5.0,83,-99.99,,,-99.99,,2013-01-01 07:42:00,
2013-01-01 00:52:00,2.0,-2.0,-100.00,ENE,73,2.0,5.0,83,-99.99,,,-99.99,,2013-01-01 07:52:00,
2013-01-01 01:02:00,1.0,-3.0,-100.00,NNW,337,1.0,5.0,83,-99.99,,,-99.99,,2013-01-01 08:02:00,
2013-01-01 01:11:00,1.0,-3.0,-100.00,NE,45,1.0,3.0,83,-99.99,,,-99.99,,2013-01-01 08:11:00,
2013-01-01 01:22:00,1.0,-3.0,-100.00,NE,45,1.0,3.0,83,-99.99,,,-99.99,,2013-01-01 08:22:00,
2013-01-01 01:32:00,1.0,-3.0,-100.00,NE,45,1.0,3.0,83,-99.99,,,-99.99,,2013-01-01 08:32:00,
2013-01-01 01:42:00,2.0,-2.0,-100.00,SSW,198,1.0,2.0,83,-99.99,,,-99.99,,2013-01-01 08:42:00,
2013-01-01 01:53:00,2.0,-2.0,-100.00,NE,42,1.0,3.0,82,-99.99,,,-99.99,,2013-01-01 08:53:00,
2013-01-01 02:02:00,2.0,-2.0,-100.00,NE,42,1.0,3.0,82,-99.99,,,-99.99,,2013-01-01 09:02:00,
2013-01-01 02:11:00,1.0,-2.0,-100.00,ENE,57,1.0,4.0,83,-99.99,,,-99.99,,2013-01-01 09:11:00,
2013-01-01 02:22:00,1.0,-2.0,-100.00,ENE,57,1.0,4.0,83,-99.99,,,-99.99,,2013-01-01 09:22:00,
2013-01-01 02:32:00,1.0,-2.0,-100.00,ENE,57,1.0,4.0,83,-99.99,,,-99.99,,2013-01-01 09:32:00,
2013-01-01 02:42:00,2.0,-2.0,-100.00,ENE,77,2.0,5.0,82,-99.99,,,-99.99,,2013-01-01 09:42:00,
2013-01-01 02:52:00,3.0,-1.0,-100.00,West,261,1.0,3.0,82,-99.99,,,-99.99,,2013-01-01 09:52:00,
2013-01-01 03:02:00,3.0,-1.0,-100.00,West,261,1.0,3.0,82,-99.99,,,-99.99,,2013-01-01 10:02:00,
2013-01-01 03:12:00,5.0,1.0,-100.00,SE,133,1.0,3.0,83,-99.99,,,-99.99,,2013-01-01 10:12:00,
2013-01-01 03:22:00,5.0,1.0,-100.00,SE,133,1.0,3.0,83,-99.99,,,-99.99,,2013-01-01 10:22:00,
2013-01-01 03:32:00,5.0,1.0,-100.00,SE,133,1.0,3.0,83,-99.99,,,-99.99,,2013-01-01 10:32:00,
2013-01-01 03:42:00,5.0,1.0,-100.00,East,98,2.0,4.0,82,-99.99,,,-99.99,,2013-01-01 10:42:00,
2013-01-01 03:53:00,5.0,1.0,-100.00,East,98,2.0,4.0,82,-99.99,,,-99.99,,2013-01-01 10:53:00,
2013-01-01 04:02:00,6.0,2.0,-100.00,South,174,0.0,1.0,83,-99.99,,,-99.99,,2013-01-01 11:02:00,
2013-01-01 04:12:00,6.0,2.0,-100.00,East,91,1.0,4.0,82,-99.99,,,-99.99,,2013-01-01 11:12:00,
2013-01-01 04:22:00,6.0,2.0,-100.00,East,91,1.0,4.0,82,-99.99,,,-99.99,,2013-01-01 11:22:00,
2013-01-01 04:32:00,6.0,2.0,-100.00,East,91,1.0,4.0,82,-99.99,,,-99.99,,2013-01-01 11:32:00,
2013-01-01 04:42:00,6.0,2.0,-100.00,WSW,246,1.0,3.0,83,-99.99,,,-99.99,,2013-01-01 11:42:00,
2013-01-01 04:53:00,6.0,2.0,-100.00,West,275,3.0,7.0,81,-99.99,,,-99.99,,2013-01-01 11:53:00,
2013-01-01 05:02:00,6.0,2.0,-100.00,West,275,3.0,7.0,81,-99.99,,,-99.99,,2013-01-01 12:02:00,
2013-01-01 05:12:00,5.0,1.0,-100.00,NE,51,2.0,5.0,83,-99.99,,,-99.99,,2013-01-01 12:12:00,
2013-01-01 05:22:00,5.0,1.0,-100.00,NE,51,2.0,5.0,83,-99.99,,,-99.99,,2013-01-01 12:22:00,
2013-01-01 05:32:00,5.0,1.0,-100.00,NE,51,2.0,5.0,83,-99.99,,,-99.99,,2013-01-01 12:32:00,
2013-01-01 05:42:00,6.0,2.0,-100.00,SW,231,2.0,4.0,82,-99.99,,,-99.99,,2013-01-01 12:42:00,
2013-01-01 05:53:00,6.0,2.0,-100.00,SW,231,2.0,4.0,82,-99.99,,,-99.99,,2013-01-01 12:53:00,
2013-01-01 06:02:00,7.0,3.0,-100.00,ESE,120,1.0,3.0,83,-99.99,,,-99.99,,2013-01-01 13:02:00,
2013-01-01 06:12:00,9.0,5.0,-100.00,SSE,156,1.0,3.0,83,-99.99,,,-99.99,,2013-01-01 13:12:00,
2013-01-01 06:22:00,9.0,5.0,-100.00,SSE,156,1.0,3.0,83,-99.99,,,-99.99,,2013-01-01 13:22:00,
2013-01-01 06:32:00,9.0,5.0,-100.00,SSE,156,1.0,3.0,83,-99.99,,,-99.99,,2013-01-01 13:32:00,
2013-01-01 06:42:00,9.0,5.0,-100.00,ESE,112,1.0,3.0,82,-99.99,,,-99.99,,2013-01-01 13:42:00,
2013-01-01 06:52:00,9.0,4.0,-100.00,East,98,2.0,3.0,82,-99.99,,,-99.99,,2013-01-01 13:52:00,
2013-01-01 07:02:00,9.0,4.0,-100.00,East,98,2.0,3.0,82,-99.99,,,-99.99,,2013-01-01 14:02:00,
2013-01-01 07:12:00,9.0,5.0,-100.00,ENE,78,2.0,3.0,83,-99.99,,,-99.99,,2013-01-01 14:12:00,
2013-01-01 07:22:00,9.0,5.0,-100.00,ENE,78,2.0,3.0,83,-99.99,,,-99.99,,2013-01-01 14:22:00,
2013-01-01 07:32:00,9.0,5.0,-100.00,ENE,78,2.0,3.0,83,-99.99,,,-99.99,,2013-01-01 14:32:00,
2013-01-01 07:42:00,9.0,5.0,-100.00,SE,124,3.0,7.0,83,-99.99,,,-99.99,,2013-01-01 14:42:00,
2013-01-01 07:53:00,9.0,5.0,-100.00,SE,124,3.0,7.0,83,-99.99,,,-99.99,,2013-01-01 14:53:00,
2013-01-01 08:02:00,9.0,4.0,-100.00,NNE,32,1.0,3.0,82,-99.99,,,-99.99,,2013-01-01 15:02:00,
2013-01-01 08:12:00,8.0,4.0,-100.00,NE,51,2.0,4.0,82,-99.99,,,-99.99,,2013-01-01 15:12:00,
2013-01-01 08:22:00,8.0,4.0,-100.00,NE,51,2.0,4.0,82,-99.99,,,-99.99,,2013-01-01 15:22:00,
2013-01-01 08:32:00,8.0,4.0,-100.00,NE,51,2.0,4.0,82,-99.99,,,-99.99,,2013-01-01 15:32:00,
2013-01-01 08:42:00,8.0,4.0,-100.00,WSW,245,0.0,2.0,81,-99.99,,,-99.99,,2013-01-01 15:42:00,
2013-01-01 08:53:00,8.0,4.0,-100.00,WSW,245,0.0,2.0,81,-99.99,,,-99.99,,2013-01-01 15:53:00,
2013-01-01 09:02:00,8.0,4.0,-100.00,WSW,240,1.0,3.0,80,-99.99,,,-99.99,,2013-01-01 16:02:00,
2013-01-01 09:12:00,8.0,3.0,-100.00,WSW,241,2.0,4.0,79,-99.99,,,-99.99,,2013-01-01 16:12:00,
2013-01-01 09:22:00,8.0,3.0,-100.00,WSW,241,2.0,4.0,79,-99.99,,,-99.99,,2013-01-01 16:22:00,
2013-01-01 09:32:00,8.0,3.0,-100.00,WSW,241,2.0,4.0,79,-99.99,,,-99.99,,2013-01-01 16:32:00,
2013-01-01 09:42:00,14.0,8.0,-100.00,SW,220,1.0,3.0,77,-99.99,,,-99.99,,2013-01-01 16:42:00,
2013-01-01 09:53:00,14.0,8.0,-100.00,SW,220,1.0,3.0,77,-99.99,,,-99.99,,2013-01-01 16:53:00,
2013-01-01 10:02:00,14.0,7.0,-100.00,WSW,249,3.0,3.0,73,-99.99,,,-99.99,,2013-01-01 17:02:00,
2013-01-01 10:12:00,16.0,8.0,-100.00,WSW,247,2.0,4.0,71,-99.99,,,-99.99,,2013-01-01 17:12:00,
2013-01-01 10:22:00,16.0,8.0,-100.00,WSW,247,2.0,4.0,71,-99.99,,,-99.99,,2013-01-01 17:22:00,
2013-01-01 10:42:00,13.0,7.0,-100.00,East,82,4.0,5.0,74,-99.99,,,-99.99,,2013-01-01 17:42:00,
2013-01-01 10:53:00,13.0,7.0,-100.00,East,82,4.0,5.0,74,-99.99,,,-99.99,,2013-01-01 17:53:00,
2013-01-01 11:03:00,15.0,8.0,-100.00,East,87,2.0,4.0,73,-99.99,,,-99.99,,2013-01-01 18:03:00,
2013-01-01 11:12:00,18.0,9.0,-100.00,ESE,113,2.0,4.0,69,-99.99,,,-99.99,,2013-01-01 18:12:00,
2013-01-01 11:22:00,18.0,9.0,-100.00,ESE,113,2.0,4.0,69,-99.99,,,-99.99,,2013-01-01 18:22:00,
2013-01-01 11:33:00,18.0,9.0,-100.00,ESE,113,2.0,4.0,69,-99.99,,,-99.99,,2013-01-01 18:33:00,
2013-01-01 11:42:00,18.0,9.0,-100.00,East,97,3.0,4.0,66,-99.99,,,-99.99,,2013-01-01 18:42:00,
2013-01-01 11:53:00,18.0,9.0,-100.00,East,97,3.0,4.0,66,-99.99,,,-99.99,,2013-01-01 18:53:00,
2013-01-01 12:02:00,18.0,9.0,-100.00,East,88,2.0,3.0,66,-99.99,,,-99.99,,2013-01-01 19:02:00,
2013-01-01 12:12:00,19.0,9.0,-100.00,East,88,2.0,4.0,64,-99.99,,,-99.99,,2013-01-01 19:12:00,
2013-01-01 12:22:00,19.0,9.0,-100.00,East,88,2.0,4.0,64,-99.99,,,-99.99,,2013-01-01 19:22:00,
2013-01-01 12:32:00,19.0,9.0,-100.00,East,88,2.0,4.0,64,-99.99,,,-99.99,,2013-01-01 19:32:00,
2013-01-01 12:42:00,19.0,10.0,-100.00,West,262,6.0,11.0,66,-99.99,,,-99.99,,2013-01-01 19:42:00,
2013-01-01 12:52:00,20.0,10.0,-100.00,WSW,258,6.0,11.0,65,-99.99,,,-99.99,,2013-01-01 19:52:00,
2013-01-01 13:02:00,20.0,10.0,-100.00,WSW,258,6.0,11.0,65,-99.99,,,-99.99,,2013-01-01 20:02:00,
2013-01-01 13:12:00,20.0,11.0,-100.00,WSW,246,6.0,10.0,65,-99.99,,,-99.99,,2013-01-01 20:12:00,
2013-01-01 13:22:00,20.0,11.0,-100.00,WSW,246,6.0,10.0,65,-99.99,,,-99.99,,2013-01-01 20:22:00,
2013-01-01 13:32:00,20.0,11.0,-100.00,WSW,246,6.0,10.0,65,-99.99,,,-99.99,,2013-01-01 20:32:00,
2013-01-01 13:42:00,22.0,11.0,-100.00,SW,232,5.0,9.0,63,-99.99,,,-99.99,,2013-01-01 20:42:00,
2013-01-01 13:53:00,22.0,11.0,-100.00,SW,232,5.0,9.0,63,-99.99,,,-99.99,,2013-01-01 20:53:00,
2013-01-01 14:03:00,20.0,11.0,-100.00,WSW,254,9.0,15.0,67,-99.99,,,-99.99,,2013-01-01 21:03:00,
2013-01-01 14:12:00,19.0,11.0,-100.00,West,261,10.0,16.0,70,-99.99,,,-99.99,,2013-01-01 21:12:00,
2013-01-01 14:22:00,19.0,11.0,-100.00,West,261,10.0,16.0,70,-99.99,,,-99.99,,2013-01-01 21:22:00,
2013-01-01 14:32:00,19.0,11.0,-100.00,West,261,10.0,16.0,70,-99.99,,,-99.99,,2013-01-01 21:32:00,
2013-01-01 14:42:00,17.0,11.0,-100.00,West,266,10.0,16.0,74,-99.99,,,-99.99,,2013-01-01 21:42:00,
2013-01-01 14:53:00,18.0,11.0,-100.00,West,271,9.0,14.0,73,-99.99,,,-99.99,,2013-01-01 21:53:00,
2013-01-01 15:02:00,18.0,11.0,-100.00,West,271,9.0,14.0,73,-99.99,,,-99.99,,2013-01-01 22:02:00,
2013-01-01 15:12:00,18.0,11.0,-100.00,West,270,7.0,15.0,72,-99.99,,,-99.99,,2013-01-01 22:12:00,
2013-01-01 15:22:00,18.0,11.0,-100.00,West,270,7.0,15.0,72,-99.99,,,-99.99,,2013-01-01 22:22:00,
2013-01-01 15:32:00,18.0,11.0,-100.00,West,270,7.0,15.0,72,-99.99,,,-99.99,,2013-01-01 22:32:00,
2013-01-01 15:42:00,18.0,11.0,-100.00,WSW,254,6.0,11.0,70,-99.99,,,-99.99,,2013-01-01 22:42:00,
2013-01-01 15:52:00,18.0,11.0,-100.00,WSW,254,6.0,11.0,70,-99.99,,,-99.99,,2013-01-01 22:52:00,
2013-01-01 16:02:00,19.0,11.0,-100.00,West,266,4.0,11.0,69,-99.99,,,-99.99,,2013-01-01 23:02:00,
2013-01-01 16:12:00,19.0,10.0,-100.00,WSW,254,6.0,10.0,69,-99.99,,,-99.99,,2013-01-01 23:12:00,
2013-01-01 16:22:00,19.0,10.0,-100.00,WSW,254,6.0,10.0,69,-99.99,,,-99.99,,2013-01-01 23:22:00,
2013-01-01 16:32:00,19.0,10.0,-100.00,WSW,254,6.0,10.0,69,-99.99,,,-99.99,,2013-01-01 23:32:00,
2013-01-01 16:42:00,18.0,10.0,-100.00,SW,234,6.0,10.0,70,-99.99,,,-99.99,,2013-01-01 23:42:00,
2013-01-01 16:52:00,18.0,10.0,-100.00,SW,234,6.0,10.0,70,-99.99,,,-99.99,,2013-01-01 23:52:00,
2013-01-01 17:02:00,16.0,9.0,-100.00,WSW,245,8.0,14.0,73,-99.99,,,-99.99,,2013-01-02 00:02:00,
2013-01-01 17:12:00,15.0,8.0,-100.00,SW,235,7.0,12.0,76,-99.99,,,-99.99,,2013-01-02 00:12:00,
2013-01-01 17:22:00,15.0,8.0,-100.00,SW,235,7.0,12.0,76,-99.99,,,-99.99,,2013-01-02 00:22:00,
2013-01-01 17:32:00,15.0,8.0,-100.00,SW,235,7.0,12.0,76,-99.99,,,-99.99,,2013-01-02 00:32:00,
2013-01-01 17:42:00,14.0,8.0,-100.00,SW,215,7.0,12.0,78,-99.99,,,-99.99,,2013-01-02 00:42:00,
2013-01-01 17:52:00,14.0,8.0,-100.00,SW,215,7.0,12.0,78,-99.99,,,-99.99,,2013-01-02 00:52:00,
2013-01-01 18:02:00,13.0,8.0,-100.00,WSW,240,5.0,9.0,79,-99.99,,,-99.99,,2013-01-02 01:02:00,
2013-01-01 18:12:00,13.0,8.0,-100.00,SW,234,4.0,10.0,78,-99.99,,,-99.99,,2013-01-02 01:12:00,
2013-01-01 18:22:00,13.0,8.0,-100.00,SW,234,4.0,10.0,78,-99.99,,,-99.99,,2013-01-02 01:22:00,
2013-01-01 18:32:00,13.0,8.0,-100.00,SW,234,4.0,10.0,78,-99.99,,,-99.99,,2013-01-02 01:32:00,
2013-01-01 18:42:00,12.0,7.0,-100.00,WSW,243,5.0,8.0,80,-99.99,,,-99.99,,2013-01-02 01:42:00,
2013-01-01 18:52:00,12.0,7.0,-100.00,WSW,243,5.0,8.0,80,-99.99,,,-99.99,,2013-01-02 01:52:00,
2013-01-01 19:02:00,11.0,7.0,-100.00,WSW,244,5.0,11.0,81,-99.99,,,-99.99,,2013-01-02 02:02:00,
2013-01-01 19:12:00,11.0,7.0,-100.00,SW,227,6.0,11.0,83,-99.99,,,-99.99,,2013-01-02 02:12:00,
2013-01-01 19:22:00,11.0,7.0,-100.00,SW,227,6.0,11.0,83,-99.99,,,-99.99,,2013-01-02 02:22:00,
2013-01-01 19:32:00,11.0,7.0,-100.00,SW,227,6.0,11.0,83,-99.99,,,-99.99,,2013-01-02 02:32:00,
2013-01-01 19:42:00,11.0,7.0,-100.00,SW,221,6.0,12.0,82,-99.99,,,-99.99,,2013-01-02 02:42:00,
2013-01-01 19:53:00,11.0,7.0,-100.00,SW,221,6.0,12.0,82,-99.99,,,-99.99,,2013-01-02 02:53:00,
2013-01-01 20:02:00,11.0,6.0,-100.00,SSW,207,3.0,6.0,82,-99.99,,,-99.99,,2013-01-02 03:02:00,
2013-01-01 20:11:00,10.0,6.0,-100.00,SSW,201,1.0,4.0,81,-99.99,,,-99.99,,2013-01-02 03:11:00,
2013-01-01 20:22:00,10.0,6.0,-100.00,SSW,201,1.0,4.0,81,-99.99,,,-99.99,,2013-01-02 03:22:00,
2013-01-01 20:32:00,10.0,6.0,-100.00,SSW,201,1.0,4.0,81,-99.99,,,-99.99,,2013-01-02 03:32:00,
2013-01-01 20:42:00,10.0,5.0,-100.00,West,268,3.0,4.0,80,-99.99,,,-99.99,,2013-01-02 03:42:00,
2013-01-01 20:53:00,10.0,5.0,-100.00,West,268,3.0,4.0,80,-99.99,,,-99.99,,2013-01-02 03:53:00,
2013-01-01 21:02:00,9.0,4.0,-100.00,SW,226,1.0,3.0,81,-99.99,,,-99.99,,2013-01-02 04:02:00,
2013-01-01 21:12:00,7.0,2.0,-100.00,West,261,3.0,5.0,81,-99.99,,,-99.99,,2013-01-02 04:12:00,
2013-01-01 21:22:00,7.0,2.0,-100.00,West,261,3.0,5.0,81,-99.99,,,-99.99,,2013-01-02 04:22:00,
2013-01-01 21:32:00,7.0,2.0,-100.00,West,261,3.0,5.0,81,-99.99,,,-99.99,,2013-01-02 04:32:00,
2013-01-01 21:42:00,4.0,0.0,-100.00,West,259,6.0,8.0,81,-99.99,,,-99.99,,2013-01-02 04:42:00,
2013-01-01 21:52:00,4.0,0.0,-100.00,West,259,6.0,8.0,81,-99.99,,,-99.99,,2013-01-02 04:52:00,
2013-01-01 22:03:00,5.0,0.0,-100.00,West,274,4.0,8.0,81,-99.99,,,-99.99,,2013-01-02 05:03:00,
2013-01-01 22:12:00,4.0,-1.0,-100.00,SW,236,2.0,4.0,80,-99.99,,,-99.99,,2013-01-02 05:12:00,
2013-01-01 22:22:00,4.0,-1.0,-100.00,SW,236,2.0,4.0,80,-99.99,,,-99.99,,2013-01-02 05:22:00,
2013-01-01 22:32:00,4.0,-1.0,-100.00,SW,236,2.0,4.0,80,-99.99,,,-99.99,,2013-01-02 05:32:00,
2013-01-01 22:42:00,2.0,-3.0,-100.00,WSW,245,4.0,6.0,80,-99.99,,,-99.99,,2013-01-02 05:42:00,
2013-01-01 22:53:00,2.0,-3.0,-100.00,WSW,245,4.0,6.0,80,-99.99,,,-99.99,,2013-01-02 05:53:00,
2013-01-01 23:02:00,2.0,-2.0,-100.00,SW,234,2.0,4.0,82,-99.99,,,-99.99,,2013-01-02 06:02:00,
2013-01-01 23:11:00,1.0,-4.0,-100.00,WSW,247,3.0,4.0,80,-99.99,,,-99.99,,2013-01-02 06:11:00,
2013-01-01 23:22:00,1.0,-4.0,-100.00,WSW,247,3.0,4.0,80,-99.99,,,-99.99,,2013-01-02 06:22:00,
2013-01-01 23:32:00,1.0,-4.0,-100.00,WSW,247,3.0,4.0,80,-99.99,,,-99.99,,2013-01-02 06:32:00,
2013-01-01 23:42:00,2.0,-3.0,-100.00,WSW,255,4.0,6.0,81,-99.99,,,-99.99,,2013-01-02 06:42:00,
2013-01-01 23:52:00,2.0,-3.0,-100.00,WSW,255,4.0,6.0,81,-99.99,,,-99.99,,2013-01-02 06:52:00,